createdAt,value
2017-04-03T00:00:32.613Z,0
2017-04-03T00:01:42.911Z,0
2017-04-03T00:02:53.207Z,0
2017-04-03T00:04:03.190Z,0
2017-04-03T00:05:13.414Z,0
2017-04-03T00:06:23.683Z,0
2017-04-03T00:07:33.343Z,0
2017-04-03T00:08:43.613Z,0
2017-04-03T00:09:53.886Z,0
2017-04-03T00:11:04.111Z,0
2017-04-03T00:12:14.083Z,0
2017-04-03T00:13:24.376Z,0
2017-04-03T00:14:34.650Z,0
2017-04-03T00:15:44.925Z,0
2017-04-03T00:16:55.499Z,0
2017-04-03T00:18:05.144Z,0
2017-04-03T00:19:15.431Z,0
2017-04-03T00:20:25.389Z,0
2017-04-03T00:21:35.713Z,0
2017-04-03T00:22:46.237Z,0
2017-04-03T00:23:56.513Z,0
2017-04-03T00:25:06.473Z,0
2017-04-03T00:26:16.743Z,0
2017-04-03T00:27:27.017Z,0
2017-04-03T00:28:37.589Z,0
2017-04-03T00:29:47.869Z,0
2017-04-03T00:30:58.153Z,0
2017-04-03T00:32:08.493Z,0
2017-04-03T00:33:18.453Z,0
2017-04-03T00:34:28.985Z,0
2017-04-03T00:35:39.264Z,0
2017-04-03T00:36:49.550Z,0
2017-04-03T00:37:59.874Z,0
2017-04-03T00:39:10.386Z,0
2017-04-03T00:40:20.597Z,0
2017-04-03T00:41:30.571Z,0
2017-04-03T00:42:40.848Z,0
2017-04-03T00:43:51.135Z,0
2017-04-03T00:45:01.416Z,0
2017-04-03T00:46:11.999Z,0
2017-04-03T00:47:22.200Z,0
2017-04-03T00:48:32.534Z,0
2017-04-03T00:49:42.502Z,0
2017-04-03T00:50:52.787Z,0
2017-04-03T00:52:03.002Z,0
2017-04-03T00:53:12.978Z,0
2017-04-03T00:54:22.943Z,0
2017-04-03T00:55:33.216Z,0
2017-04-03T00:56:43.178Z,0
2017-04-03T00:57:53.801Z,0
2017-04-03T00:59:03.764Z,0
2017-04-03T01:00:14.037Z,0
2017-04-03T01:01:23.994Z,0
2017-04-03T01:02:33.952Z,0
2017-04-03T01:03:44.468Z,0
2017-04-03T01:04:54.737Z,0
2017-04-03T01:06:05.010Z,0
2017-04-03T01:07:14.663Z,0
2017-04-03T01:08:24.937Z,0
2017-04-03T01:09:35.200Z,0
2017-04-03T01:10:45.472Z,0
2017-04-03T01:11:55.438Z,0
2017-04-03T01:13:05.712Z,0
2017-04-03T01:14:15.987Z,0
2017-04-03T01:15:26.524Z,0
2017-04-03T01:16:36.803Z,0
2017-04-03T01:17:46.768Z,0
2017-04-03T01:18:56.730Z,0
2017-04-03T01:20:07.020Z,0
2017-04-03T01:21:17.534Z,0
2017-04-03T01:22:27.500Z,0
2017-04-03T01:23:37.775Z,0
2017-04-03T01:24:48.057Z,0
2017-04-03T01:25:58.014Z,0
2017-04-03T01:27:08.274Z,0
2017-04-03T01:28:18.556Z,0
2017-04-03T01:29:28.509Z,0
2017-04-03T01:30:38.789Z,0
2017-04-03T01:31:49.065Z,0
2017-04-03T01:32:59.287Z,0
2017-04-03T01:34:09.561Z,0
2017-04-03T01:35:19.518Z,0
2017-04-03T01:36:29.801Z,0
2017-04-03T01:37:40.079Z,0
2017-04-03T01:38:50.598Z,0
2017-04-03T01:40:00.577Z,0
2017-04-03T01:41:10.858Z,0
2017-04-03T01:42:21.126Z,0
2017-04-03T01:43:31.084Z,0
2017-04-03T01:44:41.301Z,0
2017-04-03T01:45:51.570Z,0
2017-04-03T01:47:01.861Z,0
2017-04-03T01:48:11.830Z,0
2017-04-03T01:49:22.156Z,0
2017-04-03T01:50:32.729Z,0
2017-04-03T01:51:43.022Z,0
2017-04-03T01:52:53.293Z,0
2017-04-03T01:54:03.253Z,0
2017-04-03T01:55:13.534Z,0
2017-04-03T01:56:24.076Z,0
2017-04-03T01:57:34.351Z,0
2017-04-03T01:58:44.632Z,0
2017-04-03T01:59:54.904Z,0
2017-04-03T02:01:05.185Z,0
2017-04-03T02:02:15.447Z,0
2017-04-03T02:03:25.721Z,0
2017-04-03T02:04:35.994Z,0
2017-04-03T02:05:46.260Z,0
2017-04-03T02:06:56.221Z,0
2017-04-03T02:08:06.430Z,0
2017-04-03T02:09:16.696Z,0
2017-04-03T02:10:26.977Z,0
2017-04-03T02:11:37.263Z,0
2017-04-03T02:12:47.227Z,0
2017-04-03T02:13:57.797Z,0
2017-04-03T02:15:07.758Z,0
2017-04-03T02:16:18.031Z,0
2017-04-03T02:17:28.293Z,0
2017-04-03T02:18:38.602Z,0
2017-04-03T02:19:49.134Z,0
2017-04-03T02:20:59.400Z,0
2017-04-03T02:22:09.685Z,0
2017-04-03T02:23:19.655Z,0
2017-04-03T02:24:29.306Z,0
2017-04-03T02:25:39.879Z,0
2017-04-03T02:26:50.147Z,0
2017-04-03T02:28:00.416Z,0
2017-04-03T02:29:10.371Z,0
2017-04-03T02:30:20.646Z,0
2017-04-03T02:31:31.174Z,0
2017-04-03T02:32:41.186Z,0
2017-04-03T02:33:50.858Z,0
2017-04-03T02:35:01.132Z,0
2017-04-03T02:36:11.402Z,0
2017-04-03T02:37:21.502Z,0
2017-04-03T02:38:31.780Z,0
2017-04-03T02:39:41.783Z,0
2017-04-03T02:40:52.052Z,0
2017-04-03T02:42:02.321Z,0
2017-04-03T02:43:12.532Z,0
2017-04-03T02:44:22.176Z,0
2017-04-03T02:45:32.452Z,0
2017-04-03T02:46:42.755Z,0
2017-04-03T02:47:53.028Z,0
2017-04-03T02:49:03.536Z,0
2017-04-03T02:50:13.498Z,0
2017-04-03T02:51:23.461Z,0
2017-04-03T02:52:33.731Z,0
2017-04-03T02:53:43.691Z,0
2017-04-03T02:54:54.273Z,0
2017-04-03T02:56:04.548Z,0
2017-04-03T02:57:14.517Z,0
2017-04-03T02:58:24.489Z,0
2017-04-03T02:59:34.759Z,0
2017-04-03T03:00:44.981Z,0
2017-04-03T03:01:55.252Z,0
2017-04-03T03:03:05.216Z,0
2017-04-03T03:04:15.481Z,0
2017-04-03T03:05:25.436Z,0
2017-04-03T03:06:36.008Z,0
2017-04-03T03:07:46.286Z,0
2017-04-03T03:08:56.562Z,0
2017-04-03T03:10:06.522Z,0
2017-04-03T03:11:16.789Z,0
2017-04-03T03:12:26.745Z,0
2017-04-03T03:13:37.029Z,0
2017-04-03T03:14:47.303Z,0
2017-04-03T03:15:57.580Z,0
2017-04-03T03:17:07.558Z,0
2017-04-03T03:18:17.787Z,0
2017-04-03T03:19:28.057Z,0
2017-04-03T03:20:38.323Z,0
2017-04-03T03:21:48.608Z,0
2017-04-03T03:22:58.576Z,0
2017-04-03T03:24:09.163Z,0
2017-04-03T03:25:19.137Z,0
2017-04-03T03:26:29.412Z,0
2017-04-03T03:27:39.060Z,0
2017-04-03T03:28:49.325Z,0
2017-04-03T03:29:59.899Z,0
2017-04-03T03:31:10.190Z,0
2017-04-03T03:32:19.846Z,0
2017-04-03T03:33:30.109Z,0
2017-04-03T03:34:40.386Z,0
2017-04-03T03:35:50.952Z,0
2017-04-03T03:37:01.273Z,0
2017-04-03T03:38:11.543Z,0
2017-04-03T03:39:21.401Z,0
2017-04-03T03:40:31.666Z,0
2017-04-03T03:41:42.243Z,0
2017-04-03T03:42:52.202Z,0
2017-04-03T03:44:02.471Z,0
2017-04-03T03:45:12.748Z,0
2017-04-03T03:46:23.022Z,0
2017-04-03T03:47:33.285Z,0
2017-04-03T03:48:43.560Z,0
2017-04-03T03:49:53.542Z,0
2017-04-03T03:51:03.536Z,0
2017-04-03T03:52:13.818Z,0
2017-04-03T03:53:24.329Z,0
2017-04-03T03:54:34.316Z,0
2017-04-03T03:55:44.595Z,0
2017-04-03T03:56:54.553Z,0
2017-04-03T03:58:04.530Z,0
2017-04-03T03:59:15.065Z,0
2017-04-03T04:00:25.028Z,0
2017-04-03T04:01:35.312Z,0
2017-04-03T04:02:45.598Z,0
2017-04-03T04:03:56.202Z,0
2017-04-03T04:05:06.781Z,0
2017-04-03T04:06:17.060Z,0
2017-04-03T04:07:27.346Z,0
2017-04-03T04:08:37.612Z,0
2017-04-03T04:09:47.892Z,0
2017-04-03T04:10:58.429Z,0
2017-04-03T04:12:08.718Z,4
2017-04-03T04:13:19.002Z,0
2017-04-03T04:14:28.990Z,0
2017-04-03T04:15:39.341Z,4
2017-04-03T04:16:49.866Z,4
2017-04-03T04:18:00.186Z,4
2017-04-03T04:19:10.154Z,8
2017-04-03T04:20:20.429Z,8
2017-04-03T04:21:30.718Z,8
2017-04-03T04:22:40.927Z,12
2017-04-03T04:23:51.208Z,12
2017-04-03T04:25:00.894Z,12
2017-04-03T04:26:11.189Z,16
2017-04-03T04:27:20.839Z,20
2017-04-03T04:28:31.417Z,24
2017-04-03T04:29:41.394Z,24
2017-04-03T04:30:51.840Z,28
2017-04-03T04:32:01.797Z,32
2017-04-03T04:33:12.071Z,36
2017-04-03T04:34:22.639Z,36
2017-04-03T04:35:32.905Z,40
2017-04-03T04:36:42.574Z,44
2017-04-03T04:37:52.846Z,48
2017-04-03T04:39:03.121Z,52
2017-04-03T04:40:13.069Z,56
2017-04-03T04:41:23.337Z,60
2017-04-03T04:42:32.992Z,64
2017-04-03T04:43:43.271Z,68
2017-04-03T04:44:53.553Z,68
2017-04-03T04:46:03.788Z,72
2017-04-03T04:47:13.743Z,72
2017-04-03T04:48:24.011Z,72
2017-04-03T04:49:33.661Z,72
2017-04-03T04:50:43.937Z,80
2017-04-03T04:51:54.159Z,84
2017-04-03T04:53:04.124Z,84
2017-04-03T04:54:14.080Z,88
2017-04-03T04:55:24.358Z,88
2017-04-03T04:56:34.634Z,88
2017-04-03T04:57:45.161Z,100
2017-04-03T04:58:55.133Z,92
2017-04-03T05:00:05.412Z,96
2017-04-03T05:01:15.079Z,104
2017-04-03T05:02:25.057Z,108
2017-04-03T05:03:35.268Z,96
2017-04-03T05:04:45.559Z,96
2017-04-03T05:05:55.840Z,100
2017-04-03T05:07:06.136Z,104
2017-04-03T05:08:16.620Z,108
2017-04-03T05:09:27.164Z,128
2017-04-03T05:10:36.527Z,148
2017-04-03T05:11:46.811Z,176
2017-04-03T05:12:57.100Z,200
2017-04-03T05:14:07.376Z,180
2017-04-03T05:15:18.203Z,176
2017-04-03T05:16:28.473Z,164
2017-04-03T05:17:38.748Z,180
2017-04-03T05:18:49.047Z,184
2017-04-03T05:19:58.696Z,188
2017-04-03T05:21:08.950Z,200
2017-04-03T05:22:18.913Z,212
2017-04-03T05:23:28.904Z,264
2017-04-03T05:24:39.198Z,236
2017-04-03T05:25:49.169Z,256
2017-04-03T05:26:59.688Z,276
2017-04-03T05:28:09.976Z,280
2017-04-03T05:29:20.273Z,240
2017-04-03T05:30:30.547Z,232
2017-04-03T05:31:40.515Z,228
2017-04-03T05:32:51.035Z,248
2017-04-03T05:34:00.699Z,296
2017-04-03T05:35:10.665Z,332
2017-04-03T05:36:20.628Z,336
2017-04-03T05:37:30.599Z,356
2017-04-03T05:38:41.124Z,344
2017-04-03T05:39:51.406Z,416
2017-04-03T05:41:01.679Z,420
2017-04-03T05:42:11.999Z,452
2017-04-03T05:43:22.272Z,488
2017-04-03T05:44:32.800Z,536
2017-04-03T05:45:43.126Z,608
2017-04-03T05:46:53.391Z,612
2017-04-03T05:48:03.707Z,596
2017-04-03T05:49:13.977Z,556
2017-04-03T05:50:24.192Z,548
2017-04-03T05:51:34.484Z,544
2017-04-03T05:52:44.764Z,520
2017-04-03T05:53:55.050Z,484
2017-04-03T05:55:05.006Z,492
2017-04-03T05:56:14.906Z,452
2017-04-03T05:57:25.192Z,476
2017-04-03T05:58:35.215Z,584
2017-04-03T05:59:45.501Z,640
2017-04-03T06:00:55.785Z,788
2017-04-03T06:02:06.322Z,1000
2017-04-03T06:03:16.835Z,1228
2017-04-03T06:04:27.108Z,1296
2017-04-03T06:05:37.388Z,1252
2017-04-03T06:06:47.354Z,1132
2017-04-03T06:07:57.582Z,1072
2017-04-03T06:09:07.861Z,1068
2017-04-03T06:10:17.846Z,1132
2017-04-03T06:11:28.143Z,1096
2017-04-03T06:12:38.413Z,1056
2017-04-03T06:13:48.631Z,1024
2017-04-03T06:14:58.906Z,1060
2017-04-03T06:16:09.188Z,1096
2017-04-03T06:17:19.475Z,1100
2017-04-03T06:18:29.446Z,1212
2017-04-03T06:19:40.029Z,1240
2017-04-03T06:20:50.019Z,1252
2017-04-03T06:22:00.318Z,1080
2017-04-03T06:23:10.007Z,992
2017-04-03T06:24:19.979Z,964
2017-04-03T06:25:30.591Z,920
2017-04-03T06:26:40.630Z,884
2017-04-03T06:27:50.922Z,740
2017-04-03T06:29:01.440Z,836
2017-04-03T06:30:11.725Z,800
2017-04-03T06:31:22.321Z,768
2017-04-03T06:32:32.597Z,840
2017-04-03T06:33:42.565Z,832
2017-04-03T06:34:52.850Z,1024
2017-04-03T06:36:02.516Z,1200
2017-04-03T06:37:12.739Z,1468
2017-04-03T06:38:22.401Z,1280
2017-04-03T06:39:32.078Z,1236
2017-04-03T06:40:42.367Z,1140
2017-04-03T06:41:52.655Z,1152
2017-04-03T06:43:03.191Z,1068
2017-04-03T06:44:13.197Z,988
2017-04-03T06:45:23.491Z,1076
2017-04-03T06:46:33.775Z,1104
2017-04-03T06:47:44.077Z,1148
2017-04-03T06:48:54.642Z,1112
2017-04-03T06:50:04.956Z,1096
2017-04-03T06:51:15.265Z,1040
2017-04-03T06:52:25.604Z,1108
2017-04-03T06:53:35.897Z,1308
2017-04-03T06:54:46.440Z,1220
2017-04-03T06:55:56.741Z,1448
2017-04-03T06:57:07.037Z,1692
2017-04-03T06:58:17.520Z,1584
2017-04-03T06:59:27.500Z,1736
2017-04-03T07:00:37.752Z,1556
2017-04-03T07:01:48.049Z,1376
2017-04-03T07:02:57.715Z,1396
2017-04-03T07:04:08.003Z,1324
2017-04-03T07:05:17.988Z,1328
2017-04-03T07:06:28.546Z,1356
2017-04-03T07:07:38.820Z,1352
2017-04-03T07:08:48.820Z,1460
2017-04-03T07:09:59.145Z,1388
2017-04-03T07:11:08.805Z,1384
2017-04-03T07:12:19.361Z,1380
2017-04-03T07:13:29.702Z,1536
2017-04-03T07:14:40.082Z,1656
2017-04-03T07:15:50.437Z,1808
2017-04-03T07:17:00.720Z,2012
2017-04-03T07:18:11.270Z,1832
2017-04-03T07:19:21.258Z,1716
2017-04-03T07:20:31.252Z,1756
2017-04-03T07:21:41.278Z,1676
2017-04-03T07:22:51.582Z,1544
2017-04-03T07:24:02.131Z,1440
2017-04-03T07:25:12.111Z,1500
2017-04-03T07:26:22.417Z,1464
2017-04-03T07:27:32.734Z,1296
2017-04-03T07:28:43.017Z,1304
2017-04-03T07:29:53.599Z,1324
2017-04-03T07:31:03.574Z,1284
2017-04-03T07:32:13.869Z,1392
2017-04-03T07:33:23.844Z,1616
2017-04-03T07:34:34.376Z,1552
2017-04-03T07:35:44.655Z,1372
2017-04-03T07:36:54.299Z,1288
2017-04-03T07:38:04.255Z,1268
2017-04-03T07:39:14.533Z,1304
2017-04-03T07:40:24.817Z,1480
2017-04-03T07:41:35.414Z,1516
2017-04-03T07:42:45.702Z,1452
2017-04-03T07:43:55.662Z,1456
2017-04-03T07:45:05.643Z,1388
2017-04-03T07:46:15.935Z,1460
2017-04-03T07:47:26.455Z,1520
2017-04-03T07:48:36.759Z,1352
2017-04-03T07:49:46.731Z,1256
2017-04-03T07:50:57.026Z,1312
2017-04-03T07:52:07.004Z,1356
2017-04-03T07:53:16.963Z,1304
2017-04-03T07:54:27.272Z,1236
2017-04-03T07:55:37.569Z,1276
2017-04-03T07:56:47.848Z,1336
2017-04-03T07:57:57.820Z,1352
2017-04-03T07:59:08.347Z,1440
2017-04-03T08:00:18.658Z,1408
2017-04-03T08:01:28.337Z,1268
2017-04-03T08:02:38.636Z,1256
2017-04-03T08:03:48.962Z,1260
2017-04-03T08:04:59.218Z,1252
2017-04-03T08:06:09.495Z,1236
2017-04-03T08:07:19.785Z,1200
2017-04-03T08:08:29.459Z,1204
2017-04-03T08:09:39.462Z,1232
2017-04-03T08:10:50.049Z,1316
2017-04-03T08:12:00.023Z,1380
2017-04-03T08:13:09.716Z,1428
2017-04-03T08:14:19.994Z,1456
2017-04-03T08:15:30.273Z,1488
2017-04-03T08:16:40.838Z,1520
2017-04-03T08:17:50.852Z,1512
2017-04-03T08:19:00.519Z,1500
2017-04-03T08:20:10.806Z,1544
2017-04-03T08:21:20.825Z,1496
2017-04-03T08:22:31.037Z,1468
2017-04-03T08:23:41.324Z,1496
2017-04-03T08:24:51.614Z,1548
2017-04-03T08:26:01.922Z,1576
2017-04-03T08:27:12.217Z,1564
2017-04-03T08:28:22.756Z,1552
2017-04-03T08:29:32.414Z,1604
2017-04-03T08:30:42.712Z,1648
2017-04-03T08:31:53.002Z,1648
2017-04-03T08:33:03.346Z,1688
2017-04-03T08:34:14.004Z,1788
2017-04-03T08:35:24.304Z,1812
2017-04-03T08:36:33.969Z,1860
2017-04-03T08:37:44.259Z,2000
2017-04-03T08:38:54.244Z,2048
2017-04-03T08:40:04.779Z,1996
2017-04-03T08:41:15.072Z,2116
2017-04-03T08:42:25.051Z,2276
2017-04-03T08:43:35.325Z,2384
2017-04-03T08:44:45.644Z,2292
2017-04-03T08:45:55.624Z,2028
2017-04-03T08:47:05.606Z,1880
2017-04-03T08:48:14.975Z,1840
2017-04-03T08:49:25.315Z,1840
2017-04-03T08:50:35.591Z,1820
2017-04-03T08:51:45.520Z,1788
2017-04-03T08:52:55.820Z,1724
2017-04-03T08:54:06.230Z,1656
2017-04-03T08:55:16.564Z,1632
2017-04-03T08:56:26.845Z,1664
2017-04-03T08:57:37.416Z,1756
2017-04-03T08:58:47.696Z,1800
2017-04-03T08:59:57.991Z,1832
2017-04-03T09:01:07.977Z,1904
2017-04-03T09:02:18.266Z,2004
2017-04-03T09:03:28.838Z,2168
2017-04-03T09:04:39.139Z,2428
2017-04-03T09:05:49.106Z,2484
2017-04-03T09:06:59.398Z,2424
2017-04-03T09:08:09.367Z,2448
2017-04-03T09:09:20.048Z,2536
2017-04-03T09:10:30.344Z,2824
2017-04-03T09:11:40.632Z,2988
2017-04-03T09:12:50.957Z,2972
2017-04-03T09:14:00.934Z,2940
2017-04-03T09:15:11.161Z,2864
2017-04-03T09:16:21.134Z,2872
2017-04-03T09:17:31.099Z,3000
2017-04-03T09:18:41.425Z,2848
2017-04-03T09:19:51.714Z,2616
2017-04-03T09:21:01.936Z,2572
2017-04-03T09:22:11.914Z,2648
2017-04-03T09:23:22.199Z,2396
2017-04-03T09:24:32.183Z,2204
2017-04-03T09:25:42.451Z,2156
2017-04-03T09:26:52.982Z,2076
2017-04-03T09:28:02.965Z,2024
2017-04-03T09:29:13.243Z,1840
2017-04-03T09:30:23.522Z,1760
2017-04-03T09:31:33.493Z,1744
2017-04-03T09:32:44.037Z,1732
2017-04-03T09:33:54.330Z,1812
2017-04-03T09:35:03.982Z,1908
2017-04-03T09:36:13.941Z,1996
2017-04-03T09:37:24.238Z,2136
2017-04-03T09:38:34.485Z,2416
2017-04-03T09:39:44.770Z,2760
2017-04-03T09:40:55.049Z,3060
2017-04-03T09:42:05.375Z,3236
2017-04-03T09:43:15.651Z,3368
2017-04-03T09:44:26.227Z,3388
2017-04-03T09:45:36.513Z,3304
2017-04-03T09:46:46.811Z,2972
2017-04-03T09:47:57.095Z,2716
2017-04-03T09:49:07.424Z,2496
2017-04-03T09:50:17.654Z,2356
2017-04-03T09:51:27.625Z,2204
2017-04-03T09:52:37.590Z,2108
2017-04-03T09:53:47.894Z,2144
2017-04-03T09:54:58.221Z,2244
2017-04-03T09:56:08.187Z,2400
2017-04-03T09:57:18.164Z,2596
2017-04-03T09:58:28.454Z,2768
2017-04-03T09:59:38.438Z,2824
2017-04-03T10:00:48.729Z,2888
2017-04-03T10:01:58.956Z,2700
2017-04-03T10:03:09.246Z,2364
2017-04-03T10:04:19.218Z,2196
2017-04-03T10:05:29.200Z,2124
2017-04-03T10:06:39.169Z,2124
2017-04-03T10:07:49.383Z,2196
2017-04-03T10:08:59.671Z,2164
2017-04-03T10:10:09.976Z,2072
2017-04-03T10:11:20.004Z,2040
2017-04-03T10:12:30.278Z,1984
2017-04-03T10:13:40.808Z,1896
2017-04-03T10:14:50.779Z,1868
2017-04-03T10:16:01.065Z,1864
2017-04-03T10:17:11.339Z,1892
2017-04-03T10:18:21.640Z,1940
2017-04-03T10:19:31.903Z,1976
2017-04-03T10:20:42.185Z,2028
2017-04-03T10:21:52.463Z,2088
2017-04-03T10:23:02.746Z,2116
2017-04-03T10:24:12.710Z,2108
2017-04-03T10:25:23.326Z,2068
2017-04-03T10:26:33.629Z,1988
2017-04-03T10:27:43.603Z,1844
2017-04-03T10:28:53.633Z,1784
2017-04-03T10:30:03.931Z,1860
2017-04-03T10:31:14.456Z,1936
2017-04-03T10:32:24.727Z,1932
2017-04-03T10:33:35.059Z,1904
2017-04-03T10:34:45.351Z,1944
2017-04-03T10:35:55.332Z,2012
2017-04-03T10:37:05.928Z,2044
2017-04-03T10:38:16.223Z,1932
2017-04-03T10:39:26.515Z,1848
2017-04-03T10:40:36.797Z,1804
2017-04-03T10:41:46.773Z,1792
2017-04-03T10:42:56.683Z,1820
2017-04-03T10:44:06.962Z,1864
2017-04-03T10:45:17.265Z,1908
2017-04-03T10:46:27.562Z,1972
2017-04-03T10:47:37.539Z,2032
2017-04-03T10:48:48.310Z,2012
2017-04-03T10:49:58.615Z,1936
2017-04-03T10:51:08.609Z,1844
2017-04-03T10:52:18.906Z,1820
2017-04-03T10:53:28.875Z,1828
2017-04-03T10:54:39.477Z,1836
2017-04-03T10:55:49.154Z,1888
2017-04-03T10:56:59.439Z,1944
2017-04-03T10:58:09.745Z,1980
2017-04-03T10:59:20.031Z,1964
2017-04-03T11:00:30.562Z,1904
2017-04-03T11:01:40.560Z,1848
2017-04-03T11:02:50.785Z,1848
2017-04-03T11:04:01.063Z,1872
2017-04-03T11:05:11.364Z,1828
2017-04-03T11:06:21.601Z,1772
2017-04-03T11:07:31.590Z,1728
2017-04-03T11:08:41.567Z,1716
2017-04-03T11:09:51.864Z,1712
2017-04-03T11:11:02.152Z,1712
2017-04-03T11:12:12.364Z,1708
2017-04-03T11:13:22.654Z,1720
2017-04-03T11:14:32.937Z,1760
2017-04-03T11:15:42.916Z,1860
2017-04-03T11:16:53.217Z,1984
2017-04-03T11:18:03.754Z,2076
2017-04-03T11:19:13.732Z,2160
2017-04-03T11:20:23.701Z,2276
2017-04-03T11:21:34.002Z,2344
2017-04-03T11:22:43.976Z,2404
2017-04-03T11:23:54.527Z,2544
2017-04-03T11:25:04.508Z,2628
2017-04-03T11:26:14.814Z,2528
2017-04-03T11:27:25.121Z,2404
2017-04-03T11:28:35.414Z,2256
2017-04-03T11:29:45.705Z,2136
2017-04-03T11:30:55.697Z,2140
2017-04-03T11:32:05.999Z,2264
2017-04-03T11:33:16.286Z,2436
2017-04-03T11:34:25.960Z,2620
2017-04-03T11:35:36.510Z,2720
2017-04-03T11:36:46.811Z,2720
2017-04-03T11:37:57.118Z,2616
2017-04-03T11:39:07.497Z,2464
2017-04-03T11:40:17.484Z,2320
2017-04-03T11:41:27.704Z,2200
2017-04-03T11:42:38.006Z,2144
2017-04-03T11:43:48.323Z,2128
2017-04-03T11:44:58.623Z,2088
2017-04-03T11:46:08.735Z,2032
2017-04-03T11:47:19.588Z,1976
2017-04-03T11:48:29.888Z,1936
2017-04-03T11:49:39.897Z,1900
2017-04-03T11:50:50.222Z,1832
2017-04-03T11:51:59.876Z,1772
2017-04-03T11:53:10.425Z,1672
2017-04-03T11:54:20.742Z,1604
2017-04-03T11:55:31.021Z,1652
2017-04-03T11:56:41.293Z,1728
2017-04-03T11:57:51.610Z,1780
2017-04-03T11:59:01.857Z,1772
2017-04-03T12:00:12.147Z,1756
2017-04-03T12:01:22.429Z,1780
2017-04-03T12:02:32.416Z,1840
2017-04-03T12:03:42.397Z,1924
2017-04-03T12:04:52.296Z,1964
2017-04-03T12:06:02.578Z,1928
2017-04-03T12:07:12.572Z,1824
2017-04-03T12:08:22.907Z,1756
2017-04-03T12:09:33.190Z,1744
2017-04-03T12:10:43.734Z,1788
2017-04-03T12:11:54.033Z,1896
2017-04-03T12:13:04.002Z,2044
2017-04-03T12:14:14.274Z,2136
2017-04-03T12:15:24.555Z,2144
2017-04-03T12:16:34.836Z,2016
2017-04-03T12:17:45.134Z,1884
2017-04-03T12:18:55.101Z,1872
2017-04-03T12:20:05.070Z,1888
2017-04-03T12:21:15.047Z,1912
2017-04-03T12:22:25.582Z,1880
2017-04-03T12:23:35.867Z,1876
2017-04-03T12:24:45.839Z,1884
2017-04-03T12:25:55.820Z,1872
2017-04-03T12:27:06.095Z,1852
2017-04-03T12:28:16.314Z,1868
2017-04-03T12:29:26.295Z,1900
2017-04-03T12:30:36.577Z,1880
2017-04-03T12:31:46.866Z,1852
2017-04-03T12:32:57.161Z,1832
2017-04-03T12:34:07.425Z,1812
2017-04-03T12:35:17.424Z,1816
2017-04-03T12:36:27.698Z,1888
2017-04-03T12:37:37.981Z,2020
2017-04-03T12:38:48.273Z,2164
2017-04-03T12:39:58.548Z,2308
2017-04-03T12:41:08.852Z,2380
2017-04-03T12:42:19.049Z,2548
2017-04-03T12:43:28.699Z,2888
2017-04-03T12:44:38.983Z,3004
2017-04-03T12:45:49.616Z,2932
2017-04-03T12:46:59.900Z,2856
2017-04-03T12:48:10.198Z,2812
2017-04-03T12:49:20.209Z,2796
2017-04-03T12:50:30.497Z,2792
2017-04-03T12:51:41.045Z,2800
2017-04-03T12:52:51.316Z,2792
2017-04-03T12:54:01.602Z,2800
2017-04-03T12:55:11.887Z,2912
2017-04-03T12:56:22.173Z,3044
2017-04-03T12:57:32.762Z,3100
2017-04-03T12:58:43.039Z,3136
2017-04-03T12:59:53.347Z,3132
2017-04-03T13:01:03.003Z,3120
2017-04-03T13:02:13.313Z,2992
2017-04-03T13:03:23.527Z,2836
2017-04-03T13:04:33.189Z,2692
2017-04-03T13:05:43.169Z,2560
2017-04-03T13:06:53.459Z,2468
2017-04-03T13:08:03.416Z,2392
2017-04-03T13:09:14.002Z,2344
2017-04-03T13:10:23.990Z,2292
2017-04-03T13:11:34.290Z,2260
2017-04-03T13:12:44.571Z,2196
2017-04-03T13:13:54.557Z,2136
2017-04-03T13:15:04.829Z,2108
2017-04-03T13:16:14.795Z,2100
2017-04-03T13:17:24.766Z,2072
2017-04-03T13:18:35.052Z,2040
2017-04-03T13:19:44.715Z,2036
2017-04-03T13:20:55.303Z,2012
2017-04-03T13:22:05.603Z,1952
2017-04-03T13:23:15.934Z,1944
2017-04-03T13:24:26.224Z,2012
2017-04-03T13:25:36.499Z,2044
2017-04-03T13:26:46.822Z,2016
2017-04-03T13:27:56.491Z,1960
2017-04-03T13:29:06.467Z,1916
2017-04-03T13:30:16.738Z,1840
2017-04-03T13:31:27.025Z,1780
2017-04-03T13:32:41.624Z,1692
2017-04-03T13:33:51.326Z,1628
2017-04-03T13:35:01.627Z,1584
2017-04-03T13:36:11.911Z,1608
2017-04-03T13:37:21.892Z,1640
2017-04-03T13:38:31.869Z,1648
2017-04-03T13:39:42.188Z,1656
2017-04-03T13:40:52.163Z,1612
2017-04-03T13:42:02.136Z,1500
2017-04-03T13:43:12.420Z,1456
2017-04-03T13:44:22.954Z,1420
2017-04-03T13:45:33.238Z,1416
2017-04-03T13:46:43.227Z,1424
2017-04-03T13:47:53.518Z,1412
2017-04-03T13:49:03.502Z,1368
2017-04-03T13:50:14.033Z,1372
2017-04-03T13:51:24.336Z,1400
2017-04-03T13:52:34.665Z,1420
2017-04-03T13:53:44.949Z,1424
2017-04-03T13:54:55.226Z,1420
2017-04-03T13:56:05.508Z,1452
2017-04-03T13:57:15.791Z,1528
2017-04-03T13:58:26.115Z,1572
2017-04-03T13:59:36.104Z,1584
2017-04-03T14:00:46.397Z,1544
2017-04-03T14:01:56.937Z,1448
2017-04-03T14:03:07.265Z,1364
2017-04-03T14:04:17.555Z,1320
2017-04-03T14:05:27.835Z,1292
2017-04-03T14:06:38.113Z,1280
2017-04-03T14:07:48.415Z,1292
2017-04-03T14:08:58.708Z,1308
2017-04-03T14:10:09.008Z,1316
2017-04-03T14:11:19.295Z,1332
2017-04-03T14:12:29.585Z,1332
2017-04-03T14:13:39.806Z,1312
2017-04-03T14:14:50.088Z,1312
2017-04-03T14:16:00.383Z,1348
2017-04-03T14:17:10.365Z,1380
2017-04-03T14:18:20.357Z,1400
2017-04-03T14:19:30.927Z,1388
2017-04-03T14:20:41.242Z,1368
2017-04-03T14:21:51.242Z,1360
2017-04-03T14:23:01.533Z,1384
2017-04-03T14:24:11.813Z,1392
2017-04-03T14:25:22.112Z,1352
2017-04-03T14:26:32.391Z,1308
2017-04-03T14:27:42.382Z,1276
2017-04-03T14:28:52.668Z,1284
2017-04-03T14:30:02.647Z,1332
2017-04-03T14:31:13.195Z,1364
2017-04-03T14:32:23.478Z,1324
2017-04-03T14:33:33.767Z,1264
2017-04-03T14:34:44.048Z,1252
2017-04-03T14:35:54.317Z,1228
2017-04-03T14:37:04.902Z,1232
2017-04-03T14:38:14.583Z,1232
2017-04-03T14:39:24.864Z,1216
2017-04-03T14:40:35.146Z,1220
2017-04-03T14:41:45.445Z,1200
2017-04-03T14:42:56.050Z,1152
2017-04-03T14:44:06.333Z,1128
2017-04-03T14:45:16.309Z,1116
2017-04-03T14:46:26.599Z,1108
2017-04-03T14:47:36.578Z,1112
2017-04-03T14:48:47.112Z,1096
2017-04-03T14:49:57.084Z,1088
2017-04-03T14:51:07.371Z,1108
2017-04-03T14:52:17.387Z,1140
2017-04-03T14:53:27.375Z,1240
2017-04-03T14:54:37.918Z,1356
2017-04-03T14:55:48.216Z,1396
2017-04-03T14:56:58.557Z,1372
2017-04-03T14:58:08.893Z,1344
2017-04-03T14:59:19.191Z,1408
2017-04-03T15:00:29.963Z,1404
2017-04-03T15:01:39.968Z,1360
2017-04-03T15:02:50.269Z,1388
2017-04-03T15:04:00.606Z,1492
2017-04-03T15:05:10.283Z,1484
2017-04-03T15:06:20.854Z,1460
2017-04-03T15:07:31.166Z,1416
2017-04-03T15:08:41.473Z,1344
2017-04-03T15:09:51.766Z,1292
2017-04-03T15:11:02.160Z,1256
2017-04-03T15:12:12.697Z,1248
2017-04-03T15:13:22.679Z,1236
2017-04-03T15:14:32.960Z,1212
2017-04-03T15:15:43.251Z,1128
2017-04-03T15:16:53.224Z,1032
2017-04-03T15:18:03.133Z,1004
2017-04-03T15:19:13.115Z,1000
2017-04-03T15:20:23.099Z,1032
2017-04-03T15:21:33.397Z,1076
2017-04-03T15:22:43.696Z,1084
2017-04-03T15:23:54.288Z,1076
2017-04-03T15:25:04.264Z,1060
2017-04-03T15:26:14.266Z,1072
2017-04-03T15:27:24.573Z,1068
2017-04-03T15:28:34.235Z,1076
2017-04-03T15:29:44.780Z,1040
2017-04-03T15:30:54.449Z,1044
2017-04-03T15:32:04.427Z,1052
2017-04-03T15:33:14.423Z,1024
2017-04-03T15:34:24.428Z,980
2017-04-03T15:35:34.664Z,972
2017-04-03T15:36:44.966Z,948
2017-04-03T15:37:54.951Z,904
2017-04-03T15:39:05.256Z,860
2017-04-03T15:40:15.548Z,860
2017-04-03T15:41:25.837Z,912
2017-04-03T15:42:35.831Z,960
2017-04-03T15:43:46.122Z,932
2017-04-03T15:44:56.110Z,932
2017-04-03T15:46:06.441Z,940
2017-04-03T15:47:17.004Z,888
2017-04-03T15:48:27.301Z,892
2017-04-03T15:49:36.969Z,936
2017-04-03T15:50:46.331Z,952
2017-04-03T15:51:56.647Z,940
2017-04-03T15:53:07.261Z,912
2017-04-03T15:54:17.614Z,860
2017-04-03T15:55:27.912Z,824
2017-04-03T15:56:38.201Z,784
2017-04-03T15:57:48.204Z,772
2017-04-03T15:58:58.756Z,712
2017-04-03T16:00:08.734Z,656
2017-04-03T16:01:18.738Z,624
2017-04-03T16:02:28.744Z,584
2017-04-03T16:03:39.076Z,532
2017-04-03T16:04:49.319Z,496
2017-04-03T16:05:59.655Z,484
2017-04-03T16:07:09.981Z,488